Terminal Aerodrome Forecast
Issued by NWS

Home | Current Version | Previous Version | Graphics & Text | Print | Product List | Glossary On
Versions: 1 2 3 4 5 6 7 8 9 10 11 12 13 14 15 16 17 18 19 20 21 22
000
FTUS43 KOAX 240536
TAFCDR
TAF
KCDR 240536Z 2406/2506 10008KT P6SM SCT015 BKN025 OVC035
      TEMPO 2406/2409 4SM -RA BR OVC015
     FM240900 08008KT 3SM BR OVC007
     FM241600 08008KT P6SM BKN015 BKN025
     FM241800 12010KT P6SM -SHRA VCTS BKN025CB=

USA.gov is the U.S. government's official web portal to all federal, state and local government web resources and services.